Time,TemperatureF,DewpointF,PressureIn,WindDirection,WindDirectionDegrees,WindSpeedMPH,WindSpeedGustMPH,Humidity,HourlyPrecipIn,Conditions,Clouds,dailyrainin,SoftwareType,DateUTC
2013-11-25 00:00:00,21.7,6.0,30.41,NNE,33,0.0,4.0,52,0.00,,,0.00,weatherlink.com 1.10,2013-11-25 05:00:00,
2013-11-25 00:15:00,21.6,7.0,30.41,WSW,249,2.0,3.0,53,0.00,,,0.00,weatherlink.com 1.10,2013-11-25 05:15:00,
2013-11-25 00:30:00,21.7,7.0,30.40,NNW,338,0.0,5.0,53,0.00,,,0.00,weatherlink.com 1.10,2013-11-25 05:30:00,
2013-11-25 00:45:00,21.7,7.0,30.40,WSW,252,0.0,4.0,54,0.00,,,0.00,weatherlink.com 1.10,2013-11-25 05:45:00,
2013-11-25 01:00:00,21.7,7.0,30.41,SSW,205,0.0,5.0,54,0.00,,,0.00,weatherlink.com 1.10,2013-11-25 06:00:00,
2013-11-25 01:15:00,21.6,7.0,30.41,SSE,167,1.0,5.0,54,0.00,,,0.00,weatherlink.com 1.10,2013-11-25 06:15:00,
2013-11-25 01:30:00,21.1,7.0,30.40,North,1,0.0,1.0,55,0.00,,,0.00,weatherlink.com 1.10,2013-11-25 06:30:00,
2013-11-25 01:45:00,20.7,7.0,30.40,SW,222,0.0,1.0,56,0.00,,,0.00,weatherlink.com 1.10,2013-11-25 06:45:00,
2013-11-25 02:00:00,20.6,7.0,30.41,WSW,240,1.0,1.0,57,0.00,,,0.00,weatherlink.com 1.10,2013-11-25 07:00:00,
2013-11-25 02:15:00,20.7,8.0,30.41,NW,323,0.0,3.0,57,0.00,,,0.00,weatherlink.com 1.10,2013-11-25 07:15:00,
2013-11-25 02:30:00,19.8,7.0,30.41,WNW,286,0.0,2.0,58,0.00,,,0.00,weatherlink.com 1.10,2013-11-25 07:30:00,
2013-11-25 02:45:00,-999.0,-99.9,30.42,North,-999,-999.0,-999.0,-999,0.00,,,0.00,weatherlink.com 1.10,2013-11-25 07:45:00,
2013-11-25 03:00:00,-999.0,-99.9,30.41,North,-999,-999.0,-999.0,-999,0.00,,,0.00,weatherlink.com 1.10,2013-11-25 08:00:00,
2013-11-25 03:15:00,-999.0,-99.9,30.41,North,-999,-999.0,-999.0,-999,0.00,,,0.00,weatherlink.com 1.10,2013-11-25 08:15:00,
2013-11-25 03:30:00,-999.0,-99.9,30.41,North,-999,-999.0,-999.0,-999,0.00,,,0.00,weatherlink.com 1.10,2013-11-25 08:30:00,
2013-11-25 03:45:00,-999.0,-99.9,30.41,North,-999,-999.0,-999.0,-999,0.00,,,0.00,weatherlink.com 1.10,2013-11-25 08:45:00,
2013-11-25 04:00:00,-999.0,-99.9,30.42,North,-999,-999.0,-999.0,-999,0.00,,,0.00,weatherlink.com 1.10,2013-11-25 09:00:00,
2013-11-25 04:15:00,-999.0,-99.9,30.43,North,-999,-999.0,-999.0,-999,0.00,,,0.00,weatherlink.com 1.10,2013-11-25 09:15:00,
2013-11-25 04:31:00,-999.0,-99.9,30.44,North,-999,-999.0,-999.0,-999,0.00,,,0.00,weatherlink.com 1.10,2013-11-25 09:31:00,
2013-11-25 04:46:00,-999.0,-99.9,30.44,North,-999,-999.0,-999.0,-999,0.00,,,0.00,weatherlink.com 1.10,2013-11-25 09:46:00,
2013-11-25 05:01:00,-999.0,-99.9,30.45,North,-999,-999.0,-999.0,-999,0.00,,,0.00,weatherlink.com 1.10,2013-11-25 10:01:00,
2013-11-25 05:16:00,-999.0,-99.9,30.45,North,-999,-999.0,-999.0,-999,0.00,,,0.00,weatherlink.com 1.10,2013-11-25 10:16:00,
2013-11-25 05:31:00,-999.0,-99.9,30.45,North,-999,-999.0,-999.0,-999,0.00,,,0.00,weatherlink.com 1.10,2013-11-25 10:31:00,
2013-11-25 05:46:00,-999.0,-99.9,30.45,North,-999,-999.0,-999.0,-999,0.00,,,0.00,weatherlink.com 1.10,2013-11-25 10:46:00,
2013-11-25 06:01:00,-999.0,-99.9,30.46,North,-999,-999.0,-999.0,-999,0.00,,,0.00,weatherlink.com 1.10,2013-11-25 11:01:00,
2013-11-25 06:16:00,-999.0,-99.9,30.46,North,-999,-999.0,-999.0,-999,0.00,,,0.00,weatherlink.com 1.10,2013-11-25 11:16:00,
2013-11-25 06:31:00,-999.0,-99.9,30.46,North,-999,-999.0,-999.0,-999,0.00,,,0.00,weatherlink.com 1.10,2013-11-25 11:31:00,
2013-11-25 06:46:00,-999.0,-99.9,30.47,North,-999,-999.0,-999.0,-999,0.00,,,0.00,weatherlink.com 1.10,2013-11-25 11:46:00,
2013-11-25 07:01:00,-999.0,-99.9,30.47,North,-999,-999.0,-999.0,-999,0.00,,,0.00,weatherlink.com 1.10,2013-11-25 12:01:00,
2013-11-25 07:16:00,-999.0,-99.9,30.48,North,-999,-999.0,-999.0,-999,0.00,,,0.00,weatherlink.com 1.10,2013-11-25 12:16:00,
2013-11-25 07:31:00,-999.0,-99.9,30.49,North,-999,-999.0,-999.0,-999,0.00,,,0.00,weatherlink.com 1.10,2013-11-25 12:31:00,
2013-11-25 07:46:00,-999.0,-99.9,30.49,North,-999,-999.0,-999.0,-999,0.00,,,0.00,weatherlink.com 1.10,2013-11-25 12:46:00,
2013-11-25 08:02:00,20.6,9.0,30.50,WSW,252,0.0,2.0,60,0.00,,,0.00,weatherlink.com 1.10,2013-11-25 13:02:00,
2013-11-25 08:17:00,21.5,9.0,30.50,WNW,303,1.0,2.0,59,0.00,,,0.00,weatherlink.com 1.10,2013-11-25 13:17:00,
2013-11-25 08:32:00,22.1,9.0,30.50,SW,233,3.0,4.0,57,0.00,,,0.00,weatherlink.com 1.10,2013-11-25 13:32:00,
2013-11-25 08:47:00,22.9,9.0,30.49,NW,308,0.0,6.0,56,0.00,,,0.00,weatherlink.com 1.10,2013-11-25 13:47:00,
2013-11-25 09:02:00,24.0,10.0,30.50,West,281,0.0,3.0,55,0.00,,,0.00,weatherlink.com 1.10,2013-11-25 14:02:00,
2013-11-25 09:17:00,24.8,10.0,30.50,West,274,0.0,4.0,54,0.00,,,0.00,weatherlink.com 1.10,2013-11-25 14:17:00,
2013-11-25 09:32:00,25.3,10.0,30.50,WNW,287,0.0,5.0,53,0.00,,,0.00,weatherlink.com 1.10,2013-11-25 14:32:00,
2013-11-25 09:47:00,26.4,11.0,30.50,North,1,1.0,2.0,52,0.00,,,0.00,weatherlink.com 1.10,2013-11-25 14:47:00,
2013-11-25 10:02:00,26.5,10.0,30.50,WSW,243,0.0,6.0,51,0.00,,,0.00,weatherlink.com 1.10,2013-11-25 15:02:00,
2013-11-25 10:17:00,27.1,11.0,30.50,West,264,4.0,6.0,51,0.00,,,0.00,weatherlink.com 1.10,2013-11-25 15:17:00,
2013-11-25 10:32:00,28.0,11.0,30.50,SSW,213,0.0,7.0,49,0.00,,,0.00,weatherlink.com 1.10,2013-11-25 15:32:00,
2013-11-25 10:47:00,28.9,12.0,30.49,WNW,302,0.0,5.0,49,0.00,,,0.00,weatherlink.com 1.10,2013-11-25 15:47:00,
2013-11-25 11:02:00,29.3,12.0,30.48,WSW,240,3.0,4.0,49,0.00,,,0.00,weatherlink.com 1.10,2013-11-25 16:02:00,
2013-11-25 11:17:00,30.2,13.0,30.47,SSE,158,1.0,4.0,48,0.00,,,0.00,weatherlink.com 1.10,2013-11-25 16:17:00,
2013-11-25 11:32:00,30.8,13.0,30.47,WNW,297,3.0,5.0,47,0.00,,,0.00,weatherlink.com 1.10,2013-11-25 16:32:00,
2013-11-25 11:47:00,31.7,13.0,30.46,West,274,2.0,3.0,47,0.00,,,0.00,weatherlink.com 1.10,2013-11-25 16:47:00,
2013-11-25 12:02:00,31.7,13.0,30.45,SW,232,3.0,8.0,46,0.00,,,0.00,weatherlink.com 1.10,2013-11-25 17:02:00,
2013-11-25 12:17:00,32.3,13.0,30.45,WNW,291,1.0,5.0,46,0.00,,,0.00,weatherlink.com 1.10,2013-11-25 17:17:00,
2013-11-25 12:32:00,32.6,14.0,30.44,West,260,4.0,5.0,46,0.00,,,0.00,weatherlink.com 1.10,2013-11-25 17:32:00,
2013-11-25 12:47:00,33.1,14.0,30.42,WNW,298,1.0,4.0,45,0.00,,,0.00,weatherlink.com 1.10,2013-11-25 17:47:00,
2013-11-25 13:02:00,33.1,14.0,30.42,South,190,0.0,6.0,46,0.00,,,0.00,weatherlink.com 1.10,2013-11-25 18:02:00,
2013-11-25 13:17:00,33.5,14.0,30.41,NW,323,1.0,4.0,45,0.00,,,0.00,weatherlink.com 1.10,2013-11-25 18:17:00,
2013-11-25 13:32:00,34.1,15.0,30.41,West,276,2.0,4.0,45,0.00,,,0.00,weatherlink.com 1.10,2013-11-25 18:32:00,
2013-11-25 13:47:00,33.6,14.0,30.41,SSW,205,1.0,6.0,45,0.00,,,0.00,weatherlink.com 1.10,2013-11-25 18:47:00,
2013-11-25 14:02:00,34.1,15.0,30.40,SW,218,1.0,7.0,45,0.00,,,0.00,weatherlink.com 1.10,2013-11-25 19:02:00,
2013-11-25 14:17:00,34.4,14.0,30.39,SSW,194,1.0,5.0,44,0.00,,,0.00,weatherlink.com 1.10,2013-11-25 19:17:00,
2013-11-25 14:32:00,34.5,14.0,30.39,North,350,1.0,5.0,44,0.00,,,0.00,weatherlink.com 1.10,2013-11-25 19:32:00,
2013-11-25 14:47:00,34.1,14.0,30.39,SW,235,0.0,6.0,44,0.00,,,0.00,weatherlink.com 1.10,2013-11-25 19:47:00,
2013-11-25 15:02:00,34.4,14.0,30.39,WNW,284,4.0,5.0,44,0.00,,,0.00,weatherlink.com 1.10,2013-11-25 20:02:00,
2013-11-25 15:17:00,34.0,14.0,30.39,WNW,289,0.0,5.0,44,0.00,,,0.00,weatherlink.com 1.10,2013-11-25 20:17:00,
2013-11-25 15:32:00,34.1,15.0,30.40,NNW,334,1.0,4.0,45,0.00,,,0.00,weatherlink.com 1.10,2013-11-25 20:32:00,
2013-11-25 15:47:00,33.6,14.0,30.40,SSW,211,1.0,2.0,45,0.00,,,0.00,weatherlink.com 1.10,2013-11-25 20:47:00,
2013-11-25 16:02:00,33.2,14.0,30.41,SSW,204,0.0,5.0,46,0.00,,,0.00,weatherlink.com 1.10,2013-11-25 21:02:00,
2013-11-25 16:17:00,32.9,15.0,30.41,SW,214,0.0,2.0,47,0.00,,,0.00,weatherlink.com 1.10,2013-11-25 21:17:00,
2013-11-25 16:32:00,32.7,14.0,30.40,WNW,285,0.0,5.0,47,0.00,,,0.00,weatherlink.com 1.10,2013-11-25 21:32:00,
2013-11-25 16:47:00,32.5,14.0,30.39,SW,217,0.0,6.0,46,0.00,,,0.00,weatherlink.com 1.10,2013-11-25 21:47:00,
2013-11-25 17:02:00,32.3,14.0,30.39,SSW,193,0.0,3.0,47,0.00,,,0.00,weatherlink.com 1.10,2013-11-25 22:02:00,
2013-11-25 17:17:00,32.3,13.0,30.39,West,259,1.0,4.0,46,0.00,,,0.00,weatherlink.com 1.10,2013-11-25 22:17:00,
2013-11-25 17:32:00,32.3,13.0,30.40,SW,221,0.0,4.0,46,0.00,,,0.00,weatherlink.com 1.10,2013-11-25 22:32:00,
2013-11-25 17:47:00,32.1,14.0,30.39,SSW,211,1.0,3.0,47,0.00,,,0.00,weatherlink.com 1.10,2013-11-25 22:47:00,
2013-11-25 18:02:00,31.9,14.0,30.39,South,190,0.0,5.0,48,0.00,,,0.00,weatherlink.com 1.10,2013-11-25 23:02:00,
2013-11-25 18:17:00,31.7,14.0,30.39,West,261,2.0,6.0,49,0.00,,,0.00,weatherlink.com 1.10,2013-11-25 23:17:00,
2013-11-25 18:33:00,31.5,14.0,30.40,South,190,1.0,5.0,49,0.00,,,0.00,weatherlink.com 1.10,2013-11-25 23:33:00,
2013-11-25 18:48:00,31.4,15.0,30.40,SW,224,2.0,4.0,50,0.00,,,0.00,weatherlink.com 1.10,2013-11-25 23:48:00,
2013-11-25 19:03:00,31.2,14.0,30.39,West,263,1.0,3.0,50,0.00,,,0.00,weatherlink.com 1.10,2013-11-26 00:03:00,
2013-11-25 19:18:00,31.0,14.0,30.39,SW,229,2.0,5.0,50,0.00,,,0.00,weatherlink.com 1.10,2013-11-26 00:18:00,
2013-11-25 19:34:00,31.0,14.0,30.38,SSW,211,0.0,8.0,50,0.00,,,0.00,weatherlink.com 1.10,2013-11-26 00:34:00,
2013-11-25 19:48:00,30.9,14.0,30.39,SSW,200,0.0,3.0,50,0.00,,,0.00,weatherlink.com 1.10,2013-11-26 00:48:00,
2013-11-25 20:03:00,30.9,14.0,30.38,West,276,2.0,5.0,50,0.00,,,0.00,weatherlink.com 1.10,2013-11-26 01:03:00,
2013-11-25 20:19:00,31.0,14.0,30.38,SSW,208,1.0,3.0,50,0.00,,,0.00,weatherlink.com 1.10,2013-11-26 01:19:00,
2013-11-25 20:33:00,31.0,14.0,30.37,SSW,201,2.0,4.0,49,0.00,,,0.00,weatherlink.com 1.10,2013-11-26 01:33:00,
2013-11-25 20:48:00,30.9,14.0,30.36,West,263,0.0,5.0,49,0.00,,,0.00,weatherlink.com 1.10,2013-11-26 01:48:00,
2013-11-25 21:03:00,30.9,14.0,30.36,SW,221,1.0,2.0,49,0.00,,,0.00,weatherlink.com 1.10,2013-11-26 02:03:00,
2013-11-25 21:18:00,30.9,14.0,30.37,NW,305,0.0,6.0,49,0.00,,,0.00,weatherlink.com 1.10,2013-11-26 02:18:00,
2013-11-25 21:33:00,30.9,14.0,30.38,WNW,291,0.0,4.0,49,0.00,,,0.00,weatherlink.com 1.10,2013-11-26 02:33:00,
2013-11-25 21:48:00,30.9,14.0,30.37,SW,216,0.0,6.0,50,0.00,,,0.00,weatherlink.com 1.10,2013-11-26 02:48:00,
2013-11-25 22:03:00,30.9,14.0,30.36,West,262,0.0,2.0,50,0.00,,,0.00,weatherlink.com 1.10,2013-11-26 03:03:00,
2013-11-25 22:18:00,30.9,14.0,30.36,WNW,293,2.0,3.0,50,0.00,,,0.00,weatherlink.com 1.10,2013-11-26 03:18:00,
2013-11-25 22:33:00,30.8,14.0,30.35,SW,235,0.0,2.0,51,0.00,,,0.00,weatherlink.com 1.10,2013-11-26 03:33:00,
2013-11-25 22:48:00,30.8,14.0,30.35,West,269,0.0,3.0,51,0.00,,,0.00,weatherlink.com 1.10,2013-11-26 03:48:00,
2013-11-25 23:03:00,30.8,14.0,30.36,WSW,242,1.0,2.0,51,0.00,,,0.00,weatherlink.com 1.10,2013-11-26 04:03:00,
2013-11-25 23:18:00,30.8,15.0,30.36,NW,308,0.0,4.0,52,0.00,,,0.00,weatherlink.com 1.10,2013-11-26 04:18:00,
2013-11-25 23:33:00,30.8,15.0,30.35,SW,216,0.0,1.0,52,0.00,,,0.00,weatherlink.com 1.10,2013-11-26 04:33:00,
2013-11-25 23:48:00,30.9,15.0,30.35,SSW,204,0.0,2.0,52,0.00,,,0.00,weatherlink.com 1.10,2013-11-26 04:48:00,